Aeroporto :
LOGIN :

Iscrizione | Disclaimer

   EN    FR    IT 

 










Sommario :    VFR   VFR Marginale   IFR   IFR Intensivo   IFR Molto Intensivo
Visibilità : 
Base nubi : 
>= 8 km
>= 3000ft
5 / 8 km
1000 / 3000 ft
1500m / 5 km
500 / 1000 ft
800 / 1500m
200 / 500 ft
< 800m
< 200 ft
Simboli :   Temporali  Nebbia  Neve Forte  Precipitazioni Forti  Vento > 20 kt
SIGMETs :   Varie  Temporali  Ghiacco  Turbolenza  Onda orograficha  Ceneri Vulcaniche






- Altitudine del aeroporto : 2625 ft
- Codice IATA : LEU


LESU - Aeròdrom dels Pirineus-Alt Urgell

ULTIMO METAR :
  • 070930Z VRB01KT 9999 VCSH FEW020 SCT040 FEW045TCU BKN070 16/12 Q1009

METARs OBSOLETI :
  • 070900Z VRB02KT 9999 FEW010 SCT060 BKN075 15/13 Q1009

TAF TAF LESU
Valido dal 07 a 09 ore il 08 a 09 ore UTC


070800Z 0709/0809 VRB04KT 9999 BKN040 TX21/0713Z TN08/0806Z
PROB30
TEMPO 0709/0717 4000 TSRA BKN014 FEW030CB



MetMap, La meteo Aeronautica in un colpo d'occhio ! - Copyright ORBIFLY Dicembre 2007 - Disclaimer

ORBIFLY MET'MAP TEAM :

Programmazione e sviluppo : Alexandra Zaïnal
Concezione : Baudouin d'Aumeries
Aiuto per la programmazione : Marc-Olivier Méhu
Supporto tecnico e logistico : Manuel Goepfert
Aiuto per la traduzione : Arnaldo La Scala

Contatto : metmap@orbifly.com




FONTI E CREDITI :

   NOAA